createdAt,value
2023-01-19T00:01:27.849Z,98875.41
2023-01-19T00:03:55.756Z,98864.16
2023-01-19T00:06:23.664Z,98882.38
2023-01-19T00:08:51.505Z,98878.91
2023-01-19T00:11:20.061Z,98869.22
2023-01-19T00:13:50.651Z,98877.09
2023-01-19T00:16:22.440Z,98842.31
2023-01-19T00:18:51.950Z,98838.19
2023-01-19T00:21:21.497Z,98870.28
2023-01-19T00:23:52.511Z,98827.78
2023-01-19T00:26:22.148Z,98872.81
2023-01-19T00:28:50.812Z,98866.69
2023-01-19T00:31:21.982Z,98871.94
2023-01-19T00:33:51.766Z,98884.09
2023-01-19T00:36:20.946Z,98879.63
2023-01-19T00:38:48.719Z,98881.28
2023-01-19T00:41:17.077Z,98822.41
2023-01-19T00:43:44.160Z,98890.06
2023-01-19T00:46:12.142Z,98868.50
2023-01-19T00:48:41.519Z,98898.03
2023-01-19T00:51:09.380Z,98890.13
2023-01-19T00:53:37.167Z,98834.31
2023-01-19T00:56:05.307Z,98866.59
2023-01-19T00:58:33.230Z,98891.72
2023-01-19T01:01:03.741Z,98879.56
2023-01-19T01:03:32.069Z,98895.06
2023-01-19T01:06:01.397Z,98896.91
2023-01-19T01:08:29.289Z,98884.69
2023-01-19T01:10:57.239Z,98896.66
2023-01-19T01:13:28.077Z,98900.13
2023-01-19T01:15:57.170Z,98899.28
2023-01-19T01:18:26.003Z,98902.78
2023-01-19T01:20:56.087Z,98897.50
2023-01-19T01:23:25.699Z,98908.91
2023-01-19T01:25:53.553Z,98906.25
2023-01-19T01:28:21.724Z,98910.72
2023-01-19T01:30:53.973Z,98882.06
2023-01-19T01:33:40.939Z,98909.00
2023-01-19T01:36:11.644Z,98819.66
2023-01-19T01:38:41.146Z,98913.38
2023-01-19T01:41:09.802Z,98909.81
2023-01-19T01:43:46.412Z,98916.97
2023-01-19T01:46:16.224Z,98909.00
2023-01-19T01:48:49.861Z,98908.22
2023-01-19T01:51:25.352Z,98889.88
2023-01-19T01:54:02.392Z,98913.44
2023-01-19T01:56:35.106Z,98725.81
2023-01-19T01:59:07.639Z,98897.78
2023-01-19T02:01:54.017Z,98912.44
2023-01-19T02:04:22.948Z,98910.59
2023-01-19T02:07:09.019Z,98814.19
2023-01-19T02:09:56.589Z,98890.78
2023-01-19T02:12:43.153Z,98902.09
2023-01-19T02:15:18.679Z,98906.56
2023-01-19T02:17:47.152Z,98907.38
2023-01-19T02:20:15.647Z,98903.63
2023-01-19T02:22:49.348Z,98873.19
2023-01-19T02:25:20.484Z,98900.91
2023-01-19T02:27:49.019Z,98882.84
2023-01-19T02:30:18.181Z,98904.56
2023-01-19T02:32:46.153Z,98903.63
2023-01-19T02:35:14.575Z,98835.94
2023-01-19T02:37:44.904Z,98909.69
2023-01-19T02:40:15.615Z,98898.28
2023-01-19T02:42:49.546Z,98905.97
2023-01-19T02:45:22.950Z,98908.47
2023-01-19T02:47:53.588Z,98904.97
2023-01-19T02:50:49.386Z,98909.31
2023-01-19T02:53:54.644Z,98911.00
2023-01-19T02:56:47.308Z,98896.94
2023-01-19T02:59:30.044Z,98906.38
2023-01-19T03:02:13.863Z,98891.53
2023-01-19T03:04:59.456Z,98903.66
2023-01-19T03:07:39.993Z,98903.59
2023-01-19T03:10:15.966Z,98864.47
2023-01-19T03:12:48.039Z,98886.03
2023-01-19T03:15:22.742Z,98836.66
2023-01-19T03:17:52.969Z,98884.31
2023-01-19T03:20:24.721Z,98900.78
2023-01-19T03:22:56.921Z,98898.19
2023-01-19T03:25:26.187Z,98892.06
2023-01-19T03:27:58.271Z,98886.88
2023-01-19T03:30:30.415Z,98890.41
2023-01-19T03:33:03.235Z,98896.41
2023-01-19T03:35:34.258Z,98854.69
2023-01-19T03:38:08.669Z,98885.84
2023-01-19T03:40:37.976Z,98756.59
2023-01-19T03:43:06.399Z,98890.03
2023-01-19T03:45:39.527Z,98887.59
2023-01-19T03:48:08.646Z,98888.63
2023-01-19T03:50:36.645Z,98887.66
2023-01-19T03:53:08.543Z,98875.59
2023-01-19T03:55:38.863Z,98883.19
2023-01-19T03:58:07.406Z,98873.84
2023-01-19T04:00:37.050Z,98889.44
2023-01-19T04:03:05.575Z,98888.50
2023-01-19T04:05:34.363Z,98869.50
2023-01-19T04:08:02.250Z,98879.91
2023-01-19T04:10:30.106Z,98868.47
2023-01-19T04:12:59.677Z,98887.59
2023-01-19T04:15:27.839Z,98847.69
2023-01-19T04:17:58.922Z,98868.66
2023-01-19T04:20:27.337Z,98864.88
2023-01-19T04:22:56.090Z,98884.84
2023-01-19T04:25:24.166Z,98868.31
2023-01-19T04:27:53.144Z,98876.84
2023-01-19T04:30:21.214Z,98876.03
2023-01-19T04:32:49.163Z,98873.28
2023-01-19T04:35:18.603Z,98874.97
2023-01-19T04:37:46.483Z,98884.53
2023-01-19T04:40:14.407Z,98879.91
2023-01-19T04:42:44.881Z,98872.25
2023-01-19T04:45:13.438Z,98874.81
2023-01-19T04:47:42.645Z,98872.09
2023-01-19T04:50:11.734Z,98813.19
2023-01-19T04:52:40.951Z,98859.09
2023-01-19T04:55:09.798Z,98862.38
2023-01-19T04:57:37.715Z,98867.75
2023-01-19T05:00:07.599Z,98861.56
2023-01-19T05:02:35.636Z,98864.06
2023-01-19T05:05:05.827Z,98815.41
2023-01-19T05:07:33.571Z,98856.19
2023-01-19T05:10:02.849Z,98833.75
2023-01-19T05:12:30.853Z,98861.28
2023-01-19T05:14:58.890Z,98866.47
2023-01-19T05:17:27.100Z,98806.63
2023-01-19T05:19:54.904Z,98870.78
2023-01-19T05:22:22.823Z,98871.53
2023-01-19T05:24:50.657Z,98851.50
2023-01-19T05:27:19.965Z,98877.59
2023-01-19T05:29:47.887Z,98873.47
2023-01-19T05:32:15.850Z,98873.53
2023-01-19T05:34:43.808Z,98871.00
2023-01-19T05:37:11.759Z,98883.13
2023-01-19T05:39:39.607Z,98876.09
2023-01-19T05:42:07.616Z,98874.38
2023-01-19T05:44:36.921Z,98865.88
2023-01-19T05:47:05.346Z,98888.56
2023-01-19T05:49:33.129Z,98875.25
2023-01-19T05:52:01.020Z,98869.94
2023-01-19T05:54:28.959Z,98755.50
2023-01-19T05:56:57.048Z,98859.91
2023-01-19T05:59:25.271Z,98863.41
2023-01-19T06:01:55.225Z,98860.75
2023-01-19T06:04:23.376Z,98873.78
2023-01-19T06:06:52.208Z,98881.63
2023-01-19T06:09:20.206Z,98877.19
2023-01-19T06:11:48.644Z,98840.06
2023-01-19T06:14:16.614Z,98881.69
2023-01-19T06:16:44.520Z,98861.81
2023-01-19T06:19:13.857Z,98877.34
2023-01-19T06:21:41.748Z,98853.91
2023-01-19T06:24:11.067Z,98847.78
2023-01-19T06:26:39.701Z,98872.84
2023-01-19T06:29:07.577Z,98814.44
2023-01-19T06:31:35.773Z,98872.50
2023-01-19T06:34:03.735Z,98874.22
2023-01-19T06:36:33.037Z,98870.06
2023-01-19T06:39:03.252Z,98882.03
2023-01-19T06:41:30.902Z,98876.69
2023-01-19T06:43:58.819Z,98876.59
2023-01-19T06:46:27.432Z,98867.88
2023-01-19T06:48:55.655Z,98881.59
2023-01-19T06:51:24.102Z,98873.66
2023-01-19T06:53:53.296Z,98880.38
2023-01-19T06:56:21.186Z,98881.09
2023-01-19T06:58:50.402Z,98883.66
2023-01-19T07:01:18.437Z,98875.69
2023-01-19T07:03:47.064Z,98842.00
2023-01-19T07:06:15.122Z,98886.19
2023-01-19T07:08:43.080Z,98889.78
2023-01-19T07:11:22.266Z,98887.19
2023-01-19T07:13:57.659Z,98892.41
2023-01-19T07:16:25.855Z,98888.94
2023-01-19T07:18:53.939Z,98874.25
2023-01-19T07:21:22.486Z,98914.38
2023-01-19T07:23:50.626Z,98874.31
2023-01-19T07:26:21.801Z,98904.00
2023-01-19T07:28:50.378Z,98906.59
2023-01-19T07:31:19.076Z,98919.84
2023-01-19T07:33:48.097Z,98921.72
2023-01-19T07:36:16.146Z,98925.19
2023-01-19T07:38:44.010Z,98793.47
2023-01-19T07:41:12.721Z,98687.00
2023-01-19T07:43:41.995Z,98933.59
2023-01-19T07:46:09.909Z,98925.75
2023-01-19T07:48:37.858Z,98876.16
2023-01-19T07:51:10.974Z,98925.81
2023-01-19T07:53:41.887Z,98870.97
2023-01-19T07:56:10.155Z,98882.47
2023-01-19T07:58:38.246Z,98939.13
2023-01-19T08:01:09.488Z,98934.66
2023-01-19T08:03:38.113Z,98932.34
2023-01-19T08:06:07.270Z,98940.34
2023-01-19T08:08:35.721Z,98926.44
2023-01-19T08:11:03.729Z,98943.97
2023-01-19T08:13:31.646Z,98948.19
2023-01-19T08:15:59.630Z,98950.91
2023-01-19T08:18:28.961Z,98911.09
2023-01-19T08:20:57.066Z,98961.69
2023-01-19T08:23:24.894Z,98959.22
2023-01-19T08:25:52.896Z,98946.22
2023-01-19T08:28:21.579Z,98947.16
2023-01-19T08:30:54.242Z,98947.94
2023-01-19T08:33:23.301Z,98966.13
2023-01-19T08:35:54.406Z,98973.00
2023-01-19T08:38:22.787Z,98974.81
2023-01-19T08:40:50.780Z,98891.28
2023-01-19T08:43:19.206Z,98957.09
2023-01-19T08:45:51.713Z,98981.72
2023-01-19T08:48:22.110Z,98979.13
2023-01-19T08:50:51.525Z,98971.38
2023-01-19T08:53:23.536Z,98986.72
2023-01-19T08:55:55.221Z,98978.38
2023-01-19T08:58:23.045Z,98922.91
2023-01-19T09:00:52.527Z,98993.25
2023-01-19T09:03:21.605Z,98956.66
2023-01-19T09:05:50.514Z,98991.22
2023-01-19T09:08:19.078Z,98984.78
2023-01-19T09:10:50.096Z,99007.81
2023-01-19T09:13:19.301Z,99001.88
2023-01-19T09:15:47.408Z,98966.13
2023-01-19T09:18:19.245Z,98986.78
2023-01-19T09:20:49.600Z,99014.72
2023-01-19T09:23:19.720Z,99019.00
2023-01-19T09:25:49.308Z,99018.22
2023-01-19T09:28:18.676Z,98986.97
2023-01-19T09:30:46.555Z,99030.25
2023-01-19T09:33:16.456Z,99026.03
2023-01-19T09:35:46.045Z,98999.84
2023-01-19T09:38:15.264Z,98997.38
2023-01-19T09:40:44.659Z,99028.50
2023-01-19T09:43:20.137Z,98930.16
2023-01-19T09:45:53.044Z,99013.44
2023-01-19T09:48:40.256Z,99026.31
2023-01-19T09:51:13.669Z,99033.88
2023-01-19T09:53:52.008Z,99035.34
2023-01-19T09:56:21.581Z,98990.22
2023-01-19T09:58:52.054Z,99041.69
2023-01-19T10:01:38.122Z,99042.66
2023-01-19T10:04:39.843Z,99048.00
2023-01-19T10:07:17.289Z,99041.22
2023-01-19T10:10:10.331Z,99053.22
2023-01-19T10:12:51.215Z,99042.84
2023-01-19T10:15:34.077Z,99051.59
2023-01-19T10:18:13.189Z,99054.16
2023-01-19T10:20:47.329Z,99055.97
2023-01-19T10:23:31.573Z,99063.09
2023-01-19T10:26:02.892Z,99056.22
2023-01-19T10:28:31.707Z,99056.69
2023-01-19T10:31:01.429Z,99050.66
2023-01-19T10:33:29.864Z,99038.47
2023-01-19T10:35:57.753Z,98932.53
2023-01-19T10:38:28.003Z,99060.88
2023-01-19T10:41:04.582Z,99065.28
2023-01-19T10:43:38.664Z,99065.19
2023-01-19T10:46:09.116Z,99061.81
2023-01-19T10:48:40.425Z,99068.69
2023-01-19T10:51:09.663Z,99078.41
2023-01-19T10:53:38.301Z,99066.16
2023-01-19T10:56:18.425Z,99075.66
2023-01-19T10:58:46.354Z,99078.16
2023-01-19T11:01:18.950Z,99085.38
2023-01-19T11:03:47.558Z,99079.75
2023-01-19T11:06:30.094Z,99087.75
2023-01-19T11:09:13.780Z,99081.38
2023-01-19T11:11:48.650Z,99087.97
2023-01-19T11:14:20.522Z,99091.06
2023-01-19T11:16:55.792Z,99095.59
2023-01-19T11:19:28.386Z,99098.25
2023-01-19T11:22:11.963Z,99047.66
2023-01-19T11:24:40.437Z,99068.13
2023-01-19T11:27:09.314Z,99098.88
2023-01-19T11:29:39.078Z,99104.41
2023-01-19T11:32:22.372Z,99098.06
2023-01-19T11:34:51.130Z,99104.22
2023-01-19T11:37:31.182Z,99099.88
2023-01-19T11:40:02.885Z,99092.41
2023-01-19T11:42:34.436Z,99095.72
2023-01-19T11:45:12.448Z,99101.88
2023-01-19T11:47:44.641Z,99097.78
2023-01-19T11:50:23.478Z,99056.75
2023-01-19T11:52:56.434Z,99088.16
2023-01-19T11:55:32.379Z,99106.09
2023-01-19T11:58:00.796Z,99105.53
2023-01-19T12:00:36.205Z,99110.59
2023-01-19T12:03:13.301Z,99079.13
2023-01-19T12:05:48.298Z,99056.63
2023-01-19T12:08:20.130Z,99090.78
2023-01-19T12:10:50.319Z,99087.50
2023-01-19T12:13:22.542Z,99116.19
2023-01-19T12:15:54.544Z,99111.75
2023-01-19T12:18:27.390Z,99118.75
2023-01-19T12:20:58.767Z,99123.75
2023-01-19T12:23:39.837Z,99121.25
2023-01-19T12:26:27.858Z,99127.03
2023-01-19T12:29:00.313Z,99090.59
2023-01-19T12:31:28.675Z,99138.44
2023-01-19T12:34:31.291Z,99127.19
2023-01-19T12:37:04.116Z,99109.47
2023-01-19T12:39:33.294Z,99142.47
2023-01-19T12:42:14.561Z,99138.91
2023-01-19T12:44:44.600Z,99137.59
2023-01-19T12:47:22.231Z,99119.84
2023-01-19T12:49:53.649Z,99148.81
2023-01-19T12:52:28.183Z,99148.34
2023-01-19T12:55:04.043Z,99129.03
2023-01-19T12:57:37.039Z,99155.81
2023-01-19T13:00:09.161Z,99086.44
2023-01-19T13:02:47.516Z,99163.75
2023-01-19T13:05:20.187Z,99150.19
2023-01-19T13:08:16.913Z,99168.28
2023-01-19T13:11:10.041Z,99170.63
2023-01-19T13:13:40.036Z,99170.63
2023-01-19T13:16:41.131Z,99177.06
2023-01-19T13:19:18.070Z,99175.28
2023-01-19T13:21:49.630Z,99141.66
2023-01-19T13:24:22.318Z,99093.16
2023-01-19T13:26:57.807Z,99138.25
2023-01-19T13:29:31.157Z,99174.47
2023-01-19T13:32:03.402Z,99193.75
2023-01-19T13:34:36.671Z,99143.44
2023-01-19T13:37:09.239Z,99194.56
2023-01-19T13:39:41.625Z,99188.31
2023-01-19T13:42:17.325Z,99183.94
2023-01-19T13:44:52.440Z,99198.56
2023-01-19T13:47:24.254Z,99200.63
2023-01-19T13:49:56.886Z,99190.06
2023-01-19T13:52:27.555Z,99111.81
2023-01-19T13:54:59.768Z,99204.75
2023-01-19T13:57:30.425Z,99128.91
2023-01-19T14:00:09.243Z,99205.59
2023-01-19T14:02:39.990Z,99223.16
2023-01-19T14:05:15.283Z,99228.34
2023-01-19T14:07:44.812Z,99227.56
2023-01-19T14:10:16.766Z,99239.66
2023-01-19T14:12:58.475Z,99173.00
2023-01-19T14:15:27.558Z,99240.41
2023-01-19T14:18:23.838Z,99254.97
2023-01-19T14:20:57.224Z,99248.06
2023-01-19T14:23:44.957Z,99257.59
2023-01-19T14:26:43.256Z,99260.44
2023-01-19T14:29:24.868Z,99259.56
2023-01-19T14:31:54.459Z,99263.84
2023-01-19T14:34:36.676Z,99256.00
2023-01-19T14:37:07.064Z,99269.88
2023-01-19T14:39:37.004Z,99265.38
2023-01-19T14:42:07.717Z,99272.66
2023-01-19T14:44:39.521Z,99274.75
2023-01-19T14:47:21.853Z,99275.84
2023-01-19T14:49:49.963Z,99248.22
2023-01-19T14:52:27.548Z,99287.25
2023-01-19T14:54:58.312Z,99288.22
2023-01-19T14:57:26.548Z,99293.41
2023-01-19T14:59:55.765Z,99288.97
2023-01-19T15:02:24.019Z,99287.25
2023-01-19T15:04:55.246Z,99304.09
2023-01-19T15:07:26.334Z,99305.00
2023-01-19T15:09:54.449Z,99285.00
2023-01-19T15:12:28.945Z,99308.75
2023-01-19T15:14:57.156Z,99309.91
2023-01-19T15:17:26.431Z,99312.59
2023-01-19T15:19:55.161Z,99300.53
2023-01-19T15:22:26.831Z,99294.47
2023-01-19T15:24:57.563Z,99320.75
2023-01-19T15:27:27.808Z,99330.78
2023-01-19T15:29:55.747Z,99314.25
2023-01-19T15:32:23.536Z,99264.84
2023-01-19T15:34:51.489Z,99348.72
2023-01-19T15:37:19.671Z,99347.06
2023-01-19T15:39:47.692Z,99339.31
2023-01-19T15:42:15.989Z,99355.03
2023-01-19T15:44:45.447Z,99355.09
2023-01-19T15:47:13.459Z,99354.97
2023-01-19T15:49:41.301Z,99340.09
2023-01-19T15:52:09.148Z,99350.69
2023-01-19T15:54:37.028Z,99357.63
2023-01-19T15:57:06.668Z,99359.59
2023-01-19T15:59:34.637Z,99356.25
2023-01-19T16:02:04.636Z,99362.41
2023-01-19T16:04:32.697Z,99365.03
2023-01-19T16:07:00.575Z,99364.91
2023-01-19T16:09:28.520Z,99374.88
2023-01-19T16:11:57.260Z,99368.66
2023-01-19T16:14:25.276Z,99372.31
2023-01-19T16:16:53.101Z,99374.09
2023-01-19T16:19:22.281Z,99383.00
2023-01-19T16:21:50.223Z,99382.78
2023-01-19T16:24:18.136Z,99382.00
2023-01-19T16:26:45.955Z,99387.19
2023-01-19T16:29:13.964Z,99377.88
2023-01-19T16:31:43.516Z,99384.06
2023-01-19T16:34:11.509Z,99354.47
2023-01-19T16:36:42.851Z,99331.53
2023-01-19T16:39:13.746Z,99394.53
2023-01-19T16:41:42.643Z,99375.34
2023-01-19T16:44:12.119Z,99404.00
2023-01-19T16:46:42.963Z,99397.25
2023-01-19T16:49:14.045Z,99402.66
2023-01-19T16:51:43.407Z,99407.81
2023-01-19T16:54:13.938Z,99408.81
2023-01-19T16:56:42.363Z,99380.97
2023-01-19T16:59:12.955Z,99402.03
2023-01-19T17:01:41.382Z,99404.81
2023-01-19T17:04:09.778Z,99415.06
2023-01-19T17:06:37.809Z,99425.63
2023-01-19T17:09:07.739Z,99417.78
2023-01-19T17:11:35.612Z,99437.16
2023-01-19T17:14:05.470Z,99425.84
2023-01-19T17:16:34.989Z,99428.53
2023-01-19T17:19:04.228Z,99432.00
2023-01-19T17:21:32.277Z,99431.19
2023-01-19T17:24:00.408Z,99438.25
2023-01-19T17:26:31.018Z,99408.59
2023-01-19T17:28:59.649Z,99427.06
2023-01-19T17:31:27.804Z,99456.50
2023-01-19T17:33:55.692Z,99454.75
2023-01-19T17:36:25.303Z,99455.72
2023-01-19T17:38:54.811Z,99431.06
2023-01-19T17:41:24.390Z,99464.13
2023-01-19T17:43:54.236Z,99459.50
2023-01-19T17:46:24.169Z,99453.34
2023-01-19T17:48:53.404Z,99454.09
2023-01-19T17:51:22.796Z,99456.97
2023-01-19T17:53:51.599Z,99464.13
2023-01-19T17:56:22.100Z,99370.00
2023-01-19T17:58:50.485Z,99472.66
2023-01-19T18:01:22.091Z,99473.78
2023-01-19T18:03:50.596Z,99427.41
2023-01-19T18:06:18.693Z,99470.97
2023-01-19T18:08:48.709Z,99457.22
2023-01-19T18:11:18.664Z,99467.84
2023-01-19T18:13:49.089Z,99488.72
2023-01-19T18:16:21.514Z,99481.50
2023-01-19T18:18:50.211Z,99488.53
2023-01-19T18:21:20.174Z,99483.81
2023-01-19T18:23:48.386Z,99436.94
2023-01-19T18:26:19.491Z,99487.69
2023-01-19T18:28:47.919Z,99495.44
2023-01-19T18:31:18.408Z,99491.25
2023-01-19T18:33:48.555Z,99505.25
2023-01-19T18:36:16.427Z,99499.09
2023-01-19T18:38:44.591Z,99506.78
2023-01-19T18:41:14.204Z,99508.72
2023-01-19T18:43:42.431Z,99506.28
2023-01-19T18:46:11.023Z,99490.25
2023-01-19T18:48:39.713Z,99478.97
2023-01-19T18:51:10.563Z,99504.38
2023-01-19T18:53:39.358Z,99505.25
2023-01-19T18:56:08.132Z,99494.13
2023-01-19T18:58:38.854Z,99505.41
2023-01-19T19:01:19.141Z,99507.19
2023-01-19T19:03:47.273Z,99460.78
2023-01-19T19:06:18.453Z,99446.03
2023-01-19T19:08:46.323Z,99514.72
2023-01-19T19:11:14.422Z,99512.91
2023-01-19T19:13:42.407Z,99520.06
2023-01-19T19:16:12.676Z,99499.97
2023-01-19T19:18:41.373Z,99428.44
2023-01-19T19:21:10.932Z,99521.09
2023-01-19T19:23:40.407Z,99424.47
2023-01-19T19:26:10.447Z,99528.44
2023-01-19T19:28:39.809Z,99527.47
2023-01-19T19:31:10.104Z,99525.75
2023-01-19T19:33:39.866Z,99521.38
2023-01-19T19:36:09.140Z,99463.75
2023-01-19T19:38:37.760Z,99542.22
2023-01-19T19:41:08.558Z,99531.75
2023-01-19T19:43:37.471Z,99520.97
2023-01-19T19:46:07.414Z,99541.22
2023-01-19T19:48:37.567Z,99491.47
2023-01-19T19:51:17.436Z,99539.50
2023-01-19T19:53:46.501Z,99542.09
2023-01-19T19:56:16.400Z,99524.66
2023-01-19T19:58:44.369Z,99537.66
2023-01-19T20:01:14.002Z,99494.97
2023-01-19T20:03:42.461Z,99551.91
2023-01-19T20:06:12.800Z,99561.56
2023-01-19T20:08:40.900Z,99451.47
2023-01-19T20:11:11.038Z,99558.75
2023-01-19T20:13:41.213Z,99562.34
2023-01-19T20:16:11.167Z,99516.84
2023-01-19T20:18:40.143Z,99537.84
2023-01-19T20:21:16.519Z,99551.84
2023-01-19T20:23:45.559Z,99569.31
2023-01-19T20:26:15.545Z,99584.31
2023-01-19T20:28:45.324Z,99576.25
2023-01-19T20:31:15.673Z,99558.75
2023-01-19T20:33:44.381Z,99567.47
2023-01-19T20:36:13.237Z,99564.81
2023-01-19T20:38:41.929Z,99577.22
2023-01-19T20:41:12.082Z,99579.75
2023-01-19T20:43:40.712Z,99587.84
2023-01-19T20:46:10.060Z,99456.81
2023-01-19T20:48:39.317Z,99596.53
2023-01-19T20:51:09.373Z,99590.44
2023-01-19T20:53:38.245Z,99595.66
2023-01-19T20:56:06.878Z,99598.47
2023-01-19T20:58:35.377Z,99601.22
2023-01-19T21:01:12.775Z,99610.16
2023-01-19T21:03:41.010Z,99610.00
2023-01-19T21:06:09.325Z,99597.88
2023-01-19T21:08:37.621Z,99577.78
2023-01-19T21:11:06.308Z,99617.91
2023-01-19T21:13:35.079Z,99586.56
2023-01-19T21:16:03.933Z,99622.34
2023-01-19T21:18:33.388Z,99627.56
2023-01-19T21:21:01.278Z,99616.25
2023-01-19T21:23:29.813Z,99630.22
2023-01-19T21:25:59.308Z,99631.19
2023-01-19T21:28:28.506Z,99631.94
2023-01-19T21:30:58.220Z,99623.19
2023-01-19T21:33:26.151Z,99604.00
2023-01-19T21:35:57.135Z,99601.31
2023-01-19T21:38:26.792Z,99644.91
2023-01-19T21:40:55.377Z,99646.91
2023-01-19T21:43:23.839Z,99652.28
2023-01-19T21:45:52.306Z,99513.50
2023-01-19T21:48:20.798Z,99516.94
2023-01-19T21:50:58.620Z,99623.50
2023-01-19T21:53:26.551Z,99659.31
2023-01-19T21:55:54.399Z,99655.81
2023-01-19T21:58:22.899Z,99660.22
2023-01-19T22:00:51.288Z,99666.22
2023-01-19T22:03:19.285Z,99672.34
2023-01-19T22:05:47.244Z,99640.00
2023-01-19T22:08:16.424Z,99675.97
2023-01-19T22:10:44.283Z,99677.72
2023-01-19T22:13:12.160Z,99683.16
2023-01-19T22:15:40.027Z,99682.38
2023-01-19T22:18:07.937Z,99673.66
2023-01-19T22:20:36.008Z,99683.28
2023-01-19T22:23:03.917Z,99686.75
2023-01-19T22:25:34.800Z,99689.41
2023-01-19T22:28:02.625Z,99692.03
2023-01-19T22:30:30.682Z,99698.19
2023-01-19T22:32:58.560Z,99647.47
2023-01-19T22:35:26.534Z,99430.00
2023-01-19T22:37:54.471Z,99675.41
2023-01-19T22:40:22.379Z,99688.63
2023-01-19T22:42:51.632Z,99578.50
2023-01-19T22:45:19.849Z,99696.34
2023-01-19T22:47:47.797Z,99713.78
2023-01-19T22:50:16.267Z,99720.97
2023-01-19T22:52:44.114Z,99709.69
2023-01-19T22:55:12.285Z,99715.75
2023-01-19T22:57:40.459Z,99647.59
2023-01-19T23:00:11.494Z,99719.41
2023-01-19T23:02:39.434Z,99688.75
2023-01-19T23:05:08.054Z,99697.34
2023-01-19T23:07:35.934Z,99721.84
2023-01-19T23:10:03.806Z,99688.69
2023-01-19T23:12:31.775Z,99700.03
2023-01-19T23:14:59.854Z,99673.72
2023-01-19T23:17:29.153Z,99731.44
2023-01-19T23:19:57.212Z,99738.69
2023-01-19T23:22:25.098Z,99725.53
2023-01-19T23:24:52.927Z,99668.84
2023-01-19T23:27:20.724Z,99741.47
2023-01-19T23:29:48.568Z,99740.56
2023-01-19T23:32:16.372Z,99736.31
2023-01-19T23:34:45.590Z,99743.22
2023-01-19T23:37:13.431Z,99744.97
2023-01-19T23:39:41.235Z,99748.53
2023-01-19T23:42:09.139Z,99745.88
2023-01-19T23:44:37.041Z,99748.53
2023-01-19T23:47:05.007Z,99737.19
2023-01-19T23:49:32.987Z,99750.09
2023-01-19T23:52:02.340Z,99751.72
2023-01-19T23:54:30.232Z,99764.25
2023-01-19T23:56:58.086Z,99759.75
2023-01-19T23:59:25.888Z,99673.34
